In Rescue
 
Open Full Screen Window  High Contrast Mode
July 23, 2019 1:57 AM EDT
Weather Information
Wind Direction
  ---
Wind Speed
  00 kt (0 mph)
Wind Gust
  00 kt (0 mph)
Altimeter
30.07 in
Visibility
10 SM
Temperature
14° C
57° F
Dewpoint
12° C
54° F
Humidity
88%
Sky Condition
Broken @ 7,000 ft
VFR

METAR KLWA 230557Z AUTO 00000KT 10SM BKN070 14/12 A3007 RMK AO2 T01400120 10204 20139 402250139

FAA Disclaimer: The data displayed is for advisory purposes only and is not to be used for flight planning or operations.